createdAt,value
2022-11-27T00:01:19.811Z,3.45
2022-11-27T00:03:46.661Z,3.34
2022-11-27T00:06:16.038Z,3.42
2022-11-27T00:08:43.690Z,3.38
2022-11-27T00:11:15.611Z,3.32
2022-11-27T00:13:42.146Z,3.30
2022-11-27T00:16:09.444Z,3.42
2022-11-27T00:18:36.495Z,3.38
2022-11-27T00:21:13.040Z,3.43
2022-11-27T00:23:39.952Z,3.43
2022-11-27T00:26:07.266Z,3.33
2022-11-27T00:28:35.601Z,3.27
2022-11-27T00:31:05.041Z,3.22
2022-11-27T00:33:31.497Z,3.07
2022-11-27T00:36:02.463Z,3.06
2022-11-27T00:38:28.900Z,3.02
2022-11-27T00:40:59.469Z,2.93
2022-11-27T00:43:26.003Z,2.98
2022-11-27T00:45:52.419Z,2.94
2022-11-27T00:48:18.865Z,2.98
2022-11-27T00:50:45.302Z,3.12
2022-11-27T00:53:11.979Z,3.09
2022-11-27T00:55:38.458Z,2.96
2022-11-27T00:58:04.880Z,3.00
2022-11-27T01:00:31.439Z,3.01
2022-11-27T01:02:57.897Z,2.92
2022-11-27T01:05:24.351Z,2.93
2022-11-27T01:07:51.018Z,2.97
2022-11-27T01:10:17.518Z,2.91
2022-11-27T01:12:43.936Z,2.93
2022-11-27T01:15:10.932Z,2.90
2022-11-27T01:17:37.438Z,2.84
2022-11-27T01:20:04.178Z,2.86
2022-11-27T01:22:30.626Z,2.95
2022-11-27T01:24:57.077Z,2.95
2022-11-27T01:27:23.538Z,2.78
2022-11-27T01:29:49.978Z,2.72
2022-11-27T01:32:16.432Z,2.71
2022-11-27T01:34:42.854Z,2.76
2022-11-27T01:37:09.295Z,2.77
2022-11-27T01:39:35.770Z,2.81
2022-11-27T01:42:02.233Z,2.81
2022-11-27T01:44:28.657Z,2.73
2022-11-27T01:46:58.304Z,2.83
2022-11-27T01:49:31.391Z,2.90
2022-11-27T01:52:19.625Z,2.87
2022-11-27T01:55:00.075Z,2.90
2022-11-27T01:57:38.682Z,2.76
2022-11-27T02:00:06.812Z,2.83
2022-11-27T02:02:33.316Z,2.71
2022-11-27T02:04:59.768Z,2.64
2022-11-27T02:07:26.478Z,2.61
2022-11-27T02:09:53.042Z,2.53
2022-11-27T02:12:47.058Z,2.58
2022-11-27T02:15:19.345Z,2.47
2022-11-27T02:18:10.799Z,2.38
2022-11-27T02:20:46.254Z,2.25
2022-11-27T02:23:43.671Z,2.23
2022-11-27T02:26:18.506Z,2.26
2022-11-27T02:28:59.944Z,2.35
2022-11-27T02:31:39.234Z,2.29
2022-11-27T02:34:37.097Z,2.27
2022-11-27T02:37:15.129Z,2.34
2022-11-27T02:39:55.440Z,2.40
2022-11-27T02:42:22.373Z,2.47
2022-11-27T02:45:05.215Z,2.39
2022-11-27T02:47:32.520Z,2.41
2022-11-27T02:50:00.457Z,2.41
2022-11-27T02:52:28.475Z,2.41
2022-11-27T02:55:00.537Z,2.42
2022-11-27T02:57:28.320Z,2.44
2022-11-27T02:59:57.170Z,2.51
2022-11-27T03:02:30.277Z,2.44
2022-11-27T03:05:00.832Z,2.51
2022-11-27T03:07:40.785Z,2.33
2022-11-27T03:10:26.848Z,2.20
2022-11-27T03:12:53.338Z,2.24
2022-11-27T03:15:22.063Z,2.14
2022-11-27T03:18:14.404Z,2.12
2022-11-27T03:20:44.691Z,2.14
2022-11-27T03:23:11.176Z,2.10
2022-11-27T03:25:37.703Z,2.00
2022-11-27T03:28:08.401Z,1.90
2022-11-27T03:30:34.864Z,1.80
2022-11-27T03:33:02.103Z,1.84
2022-11-27T03:35:28.739Z,1.96
2022-11-27T03:37:56.299Z,2.07
2022-11-27T03:40:32.339Z,2.09
2022-11-27T03:43:05.952Z,2.07
2022-11-27T03:45:38.067Z,2.00
2022-11-27T03:48:40.129Z,2.08
2022-11-27T03:51:28.521Z,2.17
2022-11-27T03:54:11.338Z,2.11
2022-11-27T03:56:41.864Z,2.18
2022-11-27T03:59:23.124Z,2.00
2022-11-27T04:01:49.820Z,1.87
2022-11-27T04:04:16.367Z,1.95
2022-11-27T04:06:42.947Z,2.03
2022-11-27T04:09:09.403Z,2.02
2022-11-27T04:11:36.052Z,1.95
2022-11-27T04:14:02.893Z,2.00
2022-11-27T04:16:29.515Z,1.95
2022-11-27T04:18:56.045Z,1.87
2022-11-27T04:21:22.529Z,1.86
2022-11-27T04:23:48.915Z,1.77
2022-11-27T04:26:15.472Z,1.75
2022-11-27T04:28:41.895Z,1.87
2022-11-27T04:31:08.438Z,1.76
2022-11-27T04:33:34.903Z,1.63
2022-11-27T04:36:01.357Z,1.66
2022-11-27T04:38:27.815Z,1.70
2022-11-27T04:40:54.462Z,1.86
2022-11-27T04:43:20.920Z,1.74
2022-11-27T04:45:47.384Z,1.64
2022-11-27T04:48:13.913Z,1.58
2022-11-27T04:50:40.454Z,1.65
2022-11-27T04:53:06.948Z,1.71
2022-11-27T04:55:34.570Z,1.66
2022-11-27T04:58:01.111Z,1.63
2022-11-27T05:00:27.629Z,1.66
2022-11-27T05:02:54.214Z,1.75
2022-11-27T05:05:21.875Z,1.85
2022-11-27T05:07:48.337Z,1.84
2022-11-27T05:10:14.818Z,1.82
2022-11-27T05:12:41.281Z,1.83
2022-11-27T05:15:08.640Z,1.84
2022-11-27T05:17:35.075Z,1.84
2022-11-27T05:20:01.528Z,1.91
2022-11-27T05:22:28.006Z,1.91
2022-11-27T05:24:54.470Z,1.90
2022-11-27T05:27:20.934Z,1.92
2022-11-27T05:29:47.374Z,1.87
2022-11-27T05:32:13.960Z,1.84
2022-11-27T05:34:40.653Z,1.90
2022-11-27T05:37:07.367Z,1.95
2022-11-27T05:39:33.804Z,1.92
2022-11-27T05:42:00.274Z,1.86
2022-11-27T05:44:26.984Z,1.82
2022-11-27T05:46:53.500Z,1.87
2022-11-27T05:49:19.978Z,1.85
2022-11-27T05:51:51.013Z,1.80
2022-11-27T05:54:18.176Z,1.64
2022-11-27T05:56:44.613Z,1.56
2022-11-27T05:59:11.602Z,1.60
2022-11-27T06:01:38.109Z,1.66
2022-11-27T06:04:04.792Z,1.64
2022-11-27T06:06:31.419Z,1.57
2022-11-27T06:08:57.864Z,1.49
2022-11-27T06:11:24.538Z,1.56
2022-11-27T06:13:51.551Z,1.51
2022-11-27T06:16:23.903Z,1.57
2022-11-27T06:18:55.924Z,1.59
2022-11-27T06:21:24.135Z,1.61
2022-11-27T06:23:55.396Z,1.49
2022-11-27T06:26:25.141Z,1.52
2022-11-27T06:28:52.248Z,1.53
2022-11-27T06:31:22.147Z,1.41
2022-11-27T06:33:50.083Z,1.42
2022-11-27T06:36:17.452Z,1.35
2022-11-27T06:38:44.708Z,1.32
2022-11-27T06:41:13.666Z,1.30
2022-11-27T06:43:40.204Z,1.28
2022-11-27T06:46:08.524Z,1.30
2022-11-27T06:48:35.269Z,1.44
2022-11-27T06:51:06.528Z,1.55
2022-11-27T06:53:35.497Z,1.48
2022-11-27T06:56:07.248Z,1.36
2022-11-27T06:58:33.693Z,1.36
2022-11-27T07:01:02.146Z,1.39
2022-11-27T07:03:28.670Z,1.39
2022-11-27T07:05:55.117Z,1.44
2022-11-27T07:08:22.348Z,1.53
2022-11-27T07:10:48.947Z,1.61
2022-11-27T07:13:15.513Z,1.71
2022-11-27T07:15:42.337Z,1.75
2022-11-27T07:18:08.865Z,1.87
2022-11-27T07:20:35.285Z,1.97
2022-11-27T07:23:01.756Z,1.93
2022-11-27T07:25:28.234Z,2.02
2022-11-27T07:27:55.669Z,1.99
2022-11-27T07:30:22.214Z,2.11
2022-11-27T07:32:48.700Z,2.22
2022-11-27T07:35:15.225Z,2.27
2022-11-27T07:37:41.705Z,2.28
2022-11-27T07:40:08.539Z,2.47
2022-11-27T07:42:39.034Z,2.54
2022-11-27T07:45:08.419Z,2.71
2022-11-27T07:47:34.881Z,2.76
2022-11-27T07:50:01.567Z,2.72
2022-11-27T07:52:28.134Z,2.69
2022-11-27T07:54:54.663Z,2.65
2022-11-27T07:57:21.348Z,2.51
2022-11-27T07:59:48.052Z,2.59
2022-11-27T08:02:14.854Z,2.66
2022-11-27T08:04:41.718Z,2.73
2022-11-27T08:07:08.498Z,2.75
2022-11-27T08:09:35.000Z,2.77
2022-11-27T08:12:01.443Z,2.80
2022-11-27T08:14:27.893Z,2.84
2022-11-27T08:16:54.509Z,2.87
2022-11-27T08:19:21.188Z,2.96
2022-11-27T08:21:47.958Z,3.06
2022-11-27T08:24:14.550Z,3.17
2022-11-27T08:26:41.015Z,3.29
2022-11-27T08:29:07.735Z,3.38
2022-11-27T08:31:34.492Z,3.38
2022-11-27T08:34:00.997Z,3.38
2022-11-27T08:36:28.323Z,3.41
2022-11-27T08:38:55.569Z,3.47
2022-11-27T08:41:22.267Z,3.58
2022-11-27T08:43:48.755Z,3.72
2022-11-27T08:46:15.505Z,3.78
2022-11-27T08:48:42.112Z,3.86
2022-11-27T08:51:13.513Z,3.90
2022-11-27T08:53:40.657Z,3.97
2022-11-27T08:56:07.340Z,4.03
2022-11-27T08:58:33.825Z,4.06
2022-11-27T09:01:16.620Z,4.07
2022-11-27T09:03:43.546Z,4.13
2022-11-27T09:06:13.099Z,4.24
2022-11-27T09:08:40.798Z,4.33
2022-11-27T09:11:08.355Z,4.38
2022-11-27T09:13:36.969Z,4.51
2022-11-27T09:16:09.648Z,4.51
2022-11-27T09:18:36.240Z,4.58
2022-11-27T09:21:09.281Z,4.67
2022-11-27T09:23:37.476Z,4.71
2022-11-27T09:26:06.926Z,4.80
2022-11-27T09:28:34.085Z,4.91
2022-11-27T09:31:03.064Z,4.96
2022-11-27T09:33:31.501Z,5.06
2022-11-27T09:35:58.169Z,5.15
2022-11-27T09:38:24.871Z,5.21
2022-11-27T09:41:01.805Z,5.28
2022-11-27T09:43:34.515Z,5.36
2022-11-27T09:46:09.149Z,5.47
2022-11-27T09:48:41.510Z,5.51
2022-11-27T09:51:29.168Z,5.61
2022-11-27T09:54:05.721Z,5.73
2022-11-27T09:56:35.296Z,5.82
2022-11-27T09:59:02.458Z,5.83
2022-11-27T10:01:40.412Z,5.91
2022-11-27T10:04:14.328Z,6.00
2022-11-27T10:07:20.768Z,6.15
2022-11-27T10:09:53.160Z,6.23
2022-11-27T10:12:38.340Z,6.31
2022-11-27T10:15:13.755Z,6.37
2022-11-27T10:18:02.974Z,6.44
2022-11-27T10:20:44.596Z,6.49
2022-11-27T10:23:29.450Z,6.63
2022-11-27T10:26:01.275Z,6.70
2022-11-27T10:28:33.558Z,6.75
2022-11-27T10:31:04.304Z,6.80
2022-11-27T10:33:41.216Z,6.91
2022-11-27T10:36:15.585Z,6.96
2022-11-27T10:38:43.667Z,7.00
2022-11-27T10:44:25.742Z,7.20
2022-11-27T10:46:57.276Z,7.25
2022-11-27T10:49:23.638Z,7.27
2022-11-27T10:51:50.088Z,7.30
2022-11-27T10:54:44.154Z,7.38
2022-11-27T10:57:39.059Z,7.48
2022-11-27T11:00:09.010Z,7.66
2022-11-27T11:02:38.710Z,7.67
2022-11-27T11:05:37.659Z,7.79
2022-11-27T11:08:19.312Z,7.89
2022-11-27T11:11:00.457Z,7.86
2022-11-27T11:13:29.276Z,7.75
2022-11-27T11:15:57.575Z,7.75
2022-11-27T11:18:35.628Z,7.80
2022-11-27T11:21:07.044Z,7.85
2022-11-27T11:23:34.839Z,7.86
2022-11-27T11:26:05.397Z,7.97
2022-11-27T11:28:39.506Z,8.08
2022-11-27T11:31:09.664Z,8.17
2022-11-27T11:33:46.903Z,8.31
2022-11-27T11:36:13.759Z,8.38
2022-11-27T11:38:44.799Z,8.40
2022-11-27T11:41:12.773Z,8.41
2022-11-27T11:43:39.785Z,8.47
2022-11-27T11:46:22.941Z,8.50
2022-11-27T11:48:53.841Z,8.58
2022-11-27T11:51:39.484Z,8.63
2022-11-27T11:54:18.596Z,8.61
2022-11-27T11:56:52.308Z,8.62
2022-11-27T11:59:50.400Z,8.77
2022-11-27T12:02:40.769Z,8.87
2022-11-27T12:05:36.912Z,8.89
2022-11-27T12:08:41.735Z,8.91
2022-11-27T12:11:15.993Z,8.93
2022-11-27T12:14:41.352Z,8.93
2022-11-27T12:17:20.074Z,9.02
2022-11-27T12:20:10.681Z,9.06
2022-11-27T12:22:37.645Z,9.09
2022-11-27T12:25:37.808Z,9.13
2022-11-27T12:28:41.559Z,9.20
2022-11-27T12:31:24.028Z,9.23
2022-11-27T12:34:20.659Z,9.20
2022-11-27T12:36:54.733Z,9.15
2022-11-27T12:39:28.473Z,9.17
2022-11-27T12:41:57.669Z,9.28
2022-11-27T12:44:51.761Z,9.29
2022-11-27T12:47:28.953Z,9.30
2022-11-27T12:50:01.880Z,9.31
2022-11-27T12:52:33.728Z,9.34
2022-11-27T12:55:20.947Z,9.42
2022-11-27T12:58:07.056Z,9.56
2022-11-27T13:00:41.039Z,9.55
2022-11-27T13:03:25.900Z,9.54
2022-11-27T13:05:55.302Z,9.49
2022-11-27T13:08:33.597Z,9.47
2022-11-27T13:11:07.610Z,9.50
2022-11-27T13:13:59.256Z,9.55
2022-11-27T13:16:45.672Z,9.68
2022-11-27T13:19:14.954Z,9.64
2022-11-27T13:21:42.977Z,9.63
2022-11-27T13:24:13.133Z,9.64
2022-11-27T13:26:48.951Z,9.59
2022-11-27T13:29:25.155Z,9.55
2022-11-27T13:31:56.877Z,9.54
2022-11-27T13:34:29.172Z,9.58
2022-11-27T13:37:02.790Z,9.67
2022-11-27T13:39:34.056Z,9.67
2022-11-27T13:42:12.756Z,9.64
2022-11-27T13:44:45.210Z,9.66
2022-11-27T13:47:18.449Z,9.74
2022-11-27T13:49:46.353Z,9.77
2022-11-27T13:52:17.904Z,9.77
2022-11-27T13:55:07.614Z,9.69
2022-11-27T13:57:34.422Z,9.64
2022-11-27T14:00:07.232Z,9.65
2022-11-27T14:02:46.021Z,9.56
2022-11-27T14:05:14.958Z,9.53
2022-11-27T14:07:48.273Z,9.56
2022-11-27T14:10:26.701Z,9.58
2022-11-27T14:13:06.264Z,9.63
2022-11-27T14:15:35.944Z,9.55
2022-11-27T14:18:18.402Z,9.51
2022-11-27T14:20:51.416Z,9.48
2022-11-27T14:23:51.574Z,9.49
2022-11-27T14:26:22.714Z,9.44
2022-11-27T14:28:55.462Z,9.46
2022-11-27T14:31:25.676Z,9.43
2022-11-27T14:36:38.735Z,9.31
2022-11-27T14:39:05.215Z,9.19
2022-11-27T14:41:31.954Z,9.13
2022-11-27T14:44:02.094Z,9.11
2022-11-27T14:46:30.477Z,9.06
2022-11-27T14:48:57.202Z,9.00
2022-11-27T14:51:29.635Z,8.94
2022-11-27T14:54:11.629Z,8.92
2022-11-27T14:56:42.045Z,8.88
2022-11-27T14:59:20.010Z,8.84
2022-11-27T15:01:59.355Z,8.79
2022-11-27T15:04:28.564Z,8.74
2022-11-27T15:06:57.690Z,8.72
2022-11-27T15:09:32.405Z,8.66
2022-11-27T15:12:15.192Z,8.59
2022-11-27T15:14:47.114Z,8.54
2022-11-27T15:17:23.773Z,8.46
2022-11-27T15:19:50.375Z,8.38
2022-11-27T15:22:18.540Z,8.32
2022-11-27T15:24:45.093Z,8.27
2022-11-27T15:27:14.594Z,8.22
2022-11-27T15:29:58.684Z,8.16
2022-11-27T15:32:27.492Z,8.08
2022-11-27T15:34:54.622Z,8.05
2022-11-27T15:37:34.282Z,8.00
2022-11-27T15:40:01.852Z,7.95
2022-11-27T15:42:28.697Z,7.93
2022-11-27T15:44:57.222Z,7.89
2022-11-27T15:47:37.619Z,7.87
2022-11-27T15:50:05.676Z,7.80
2022-11-27T15:52:33.045Z,7.75
2022-11-27T15:54:59.489Z,7.68
2022-11-27T15:57:26.350Z,7.65
2022-11-27T15:59:52.771Z,7.63
2022-11-27T16:02:19.231Z,7.61
2022-11-27T16:04:45.686Z,7.54
2022-11-27T16:07:12.196Z,7.43
2022-11-27T16:09:39.769Z,7.31
2022-11-27T16:12:06.804Z,7.22
2022-11-27T16:14:33.510Z,7.21
2022-11-27T16:17:01.320Z,7.24
2022-11-27T16:19:27.867Z,7.13
2022-11-27T16:21:54.738Z,7.11
2022-11-27T16:24:21.386Z,7.11
2022-11-27T16:26:47.835Z,7.10
2022-11-27T16:29:14.410Z,7.01
2022-11-27T16:31:41.055Z,6.91
2022-11-27T16:34:07.658Z,6.82
2022-11-27T16:36:34.220Z,6.76
2022-11-27T16:39:00.740Z,6.71
2022-11-27T16:41:27.385Z,6.74
2022-11-27T16:43:56.153Z,6.67
2022-11-27T16:46:27.981Z,6.58
2022-11-27T16:48:56.178Z,6.46
2022-11-27T16:51:25.480Z,6.39
2022-11-27T16:53:54.741Z,6.38
2022-11-27T16:56:24.052Z,6.40
2022-11-27T16:58:51.312Z,6.42
2022-11-27T17:01:25.767Z,6.45
2022-11-27T17:03:52.758Z,6.43
2022-11-27T17:06:29.506Z,6.40
2022-11-27T17:08:57.692Z,6.31
2022-11-27T17:11:26.177Z,6.23
2022-11-27T17:13:55.952Z,6.30
2022-11-27T17:16:22.985Z,6.30
2022-11-27T17:18:49.501Z,6.16
2022-11-27T17:21:19.111Z,6.11
2022-11-27T17:23:46.806Z,6.05
2022-11-27T17:26:16.265Z,6.01
2022-11-27T17:28:42.784Z,5.94
2022-11-27T17:31:15.573Z,5.88
2022-11-27T17:33:42.383Z,5.81
2022-11-27T17:36:09.527Z,5.82
2022-11-27T17:38:36.246Z,5.89
2022-11-27T17:41:08.570Z,5.92
2022-11-27T17:43:36.468Z,5.89
2022-11-27T17:46:08.376Z,5.86
2022-11-27T17:48:35.374Z,5.81
2022-11-27T17:51:02.110Z,5.77
2022-11-27T17:53:28.611Z,5.83
2022-11-27T17:55:57.958Z,5.79
2022-11-27T17:58:24.400Z,5.73
2022-11-27T18:00:50.855Z,5.69
2022-11-27T18:03:17.378Z,5.74
2022-11-27T18:05:43.876Z,5.78
2022-11-27T18:08:10.283Z,5.73
2022-11-27T18:10:36.768Z,5.79
2022-11-27T18:13:03.317Z,5.77
2022-11-27T18:15:29.751Z,5.65
2022-11-27T18:17:56.202Z,5.59
2022-11-27T18:20:22.644Z,5.51
2022-11-27T18:22:49.088Z,5.42
2022-11-27T18:25:15.517Z,5.35
2022-11-27T18:27:42.448Z,5.37
2022-11-27T18:30:09.458Z,5.28
2022-11-27T18:32:39.255Z,5.17
2022-11-27T18:35:06.751Z,5.10
2022-11-27T18:37:34.962Z,5.07
2022-11-27T18:40:01.716Z,5.20
2022-11-27T18:42:30.256Z,5.16
2022-11-27T18:44:56.744Z,5.16
2022-11-27T18:47:23.337Z,5.17
2022-11-27T18:49:49.972Z,5.19
2022-11-27T18:52:16.729Z,5.17
2022-11-27T18:54:44.125Z,5.17
2022-11-27T18:57:11.207Z,5.00
2022-11-27T18:59:38.305Z,4.88
2022-11-27T19:02:05.432Z,4.78
2022-11-27T19:04:35.576Z,4.77
2022-11-27T19:07:01.988Z,4.75
2022-11-27T19:09:28.507Z,4.75
2022-11-27T19:11:54.980Z,4.74
2022-11-27T19:14:21.578Z,4.70
2022-11-27T19:16:48.597Z,4.69
2022-11-27T19:22:06.137Z,4.70
2022-11-27T19:24:32.659Z,4.67
2022-11-27T19:26:59.283Z,4.67
2022-11-27T19:29:25.802Z,4.74
2022-11-27T19:31:55.009Z,4.81
2022-11-27T19:34:21.445Z,4.82
2022-11-27T19:36:48.101Z,4.85
2022-11-27T19:39:15.674Z,4.66
2022-11-27T19:41:43.320Z,4.51
2022-11-27T19:44:12.058Z,4.43
2022-11-27T19:46:39.127Z,4.40
2022-11-27T19:49:08.564Z,4.54
2022-11-27T19:51:37.763Z,4.60
2022-11-27T19:54:09.954Z,4.63
2022-11-27T19:56:38.741Z,4.56
2022-11-27T19:59:05.882Z,4.46
2022-11-27T20:01:32.858Z,4.38
2022-11-27T20:03:59.925Z,4.36
2022-11-27T20:06:27.094Z,4.32
2022-11-27T20:09:00.938Z,4.29
2022-11-27T20:11:34.082Z,4.28
2022-11-27T20:14:01.544Z,4.30
2022-11-27T20:16:28.094Z,4.26
2022-11-27T20:18:55.148Z,4.27
2022-11-27T20:21:24.091Z,4.33
2022-11-27T20:23:52.277Z,4.48
2022-11-27T20:26:22.159Z,4.50
2022-11-27T20:28:50.128Z,4.46
2022-11-27T20:31:19.718Z,4.34
2022-11-27T20:33:46.339Z,4.37
2022-11-27T20:36:14.462Z,4.38
2022-11-27T20:38:41.051Z,4.24
2022-11-27T20:41:08.899Z,4.13
2022-11-27T20:43:35.870Z,4.21
2022-11-27T20:46:03.163Z,4.19
2022-11-27T20:48:30.256Z,4.15
2022-11-27T20:50:56.976Z,4.10
2022-11-27T20:53:23.416Z,4.15
2022-11-27T20:55:49.859Z,4.15
2022-11-27T20:58:16.354Z,4.18
2022-11-27T21:00:42.866Z,4.22
2022-11-27T21:03:09.452Z,4.12
2022-11-27T21:05:35.889Z,4.00
2022-11-27T21:08:02.402Z,3.94
2022-11-27T21:10:28.852Z,3.87
2022-11-27T21:12:55.343Z,3.87
2022-11-27T21:15:21.904Z,3.95
2022-11-27T21:17:48.334Z,3.90
2022-11-27T21:20:14.808Z,3.96
2022-11-27T21:22:43.867Z,3.95
2022-11-27T21:25:10.585Z,3.91
2022-11-27T21:27:37.511Z,3.82
2022-11-27T21:30:06.073Z,3.81
2022-11-27T21:32:32.527Z,3.83
2022-11-27T21:34:59.018Z,3.91
2022-11-27T21:37:25.531Z,3.91
2022-11-27T21:39:52.024Z,3.89
2022-11-27T21:42:18.614Z,3.98
2022-11-27T21:44:45.056Z,4.02
2022-11-27T21:47:12.060Z,4.06
2022-11-27T21:49:39.917Z,4.06
2022-11-27T21:52:07.123Z,4.00
2022-11-27T21:54:34.637Z,4.04
2022-11-27T21:57:01.382Z,4.09
2022-11-27T21:59:27.877Z,4.10
2022-11-27T22:01:57.100Z,4.15
2022-11-27T22:04:24.816Z,4.24
2022-11-27T22:06:51.423Z,4.27
2022-11-27T22:09:18.085Z,4.19
2022-11-27T22:11:45.905Z,4.12
2022-11-27T22:14:14.282Z,4.10
2022-11-27T22:16:45.365Z,4.21
2022-11-27T22:19:14.281Z,4.30
2022-11-27T22:21:41.622Z,4.30
2022-11-27T22:24:14.853Z,4.25
2022-11-27T22:26:44.649Z,4.17
2022-11-27T22:29:11.179Z,3.89
2022-11-27T22:31:37.627Z,3.79
2022-11-27T22:34:04.392Z,3.88
2022-11-27T22:36:33.306Z,3.94
2022-11-27T22:39:04.120Z,3.95
2022-11-27T22:41:32.739Z,3.98
2022-11-27T22:44:00.377Z,3.97
2022-11-27T22:46:32.626Z,4.00
2022-11-27T22:49:00.980Z,3.94
2022-11-27T22:51:32.042Z,3.89
2022-11-27T22:53:58.961Z,3.89
2022-11-27T22:56:25.917Z,4.02
2022-11-27T22:59:06.061Z,4.09
2022-11-27T23:01:40.785Z,4.15
2022-11-27T23:04:07.468Z,4.16
2022-11-27T23:06:33.899Z,4.26
2022-11-27T23:09:00.413Z,4.30
2022-11-27T23:11:28.404Z,4.18
2022-11-27T23:13:56.696Z,4.17
2022-11-27T23:16:23.825Z,4.21
2022-11-27T23:18:51.206Z,4.22
2022-11-27T23:21:20.623Z,4.21
2022-11-27T23:23:47.210Z,4.20
2022-11-27T23:26:18.336Z,4.17
2022-11-27T23:28:46.092Z,4.14
2022-11-27T23:31:29.469Z,4.15
2022-11-27T23:33:57.182Z,4.10
2022-11-27T23:36:23.674Z,3.92
2022-11-27T23:38:50.221Z,3.94
2022-11-27T23:41:22.113Z,4.04
2022-11-27T23:43:49.140Z,4.05
2022-11-27T23:46:17.889Z,3.94
2022-11-27T23:48:45.245Z,3.95
2022-11-27T23:51:14.539Z,4.04
2022-11-27T23:53:41.457Z,4.04
2022-11-27T23:56:14.451Z,3.84
2022-11-27T23:58:46.656Z,3.70
